createdAt,value
2022-12-11T00:00:29.254Z,70.97
2022-12-11T00:02:56.990Z,79.03
2022-12-11T00:05:24.397Z,77.73
2022-12-11T00:07:51.707Z,81.13
2022-12-11T00:10:19.530Z,78.43
2022-12-11T00:12:46.793Z,76.97
2022-12-11T00:15:14.136Z,79.50
2022-12-11T00:17:41.602Z,81.17
2022-12-11T00:20:09.768Z,76.30
2022-12-11T00:22:37.128Z,75.47
2022-12-11T00:25:05.619Z,75.83
2022-12-11T00:27:33.562Z,81.70
2022-12-11T00:30:01.125Z,79.23
2022-12-11T00:32:29.126Z,79.00
2022-12-11T00:34:57.348Z,78.93
2022-12-11T00:37:24.806Z,71.37
2022-12-11T00:39:52.102Z,74.03
2022-12-11T00:42:19.354Z,81.90
2022-12-11T00:44:46.603Z,75.33
2022-12-11T00:47:14.137Z,76.63
2022-12-11T00:49:48.034Z,71.50
2022-12-11T00:52:18.290Z,68.40
2022-12-11T00:54:45.947Z,77.37
2022-12-11T00:57:13.171Z,75.50
2022-12-11T00:59:40.570Z,70.57
2022-12-11T01:02:07.826Z,75.67
2022-12-11T01:04:37.105Z,71.20
2022-12-11T01:07:04.568Z,68.30
2022-12-11T01:09:50.264Z,67.50
2022-12-11T01:12:17.500Z,64.23
2022-12-11T01:14:44.921Z,67.27
2022-12-11T01:17:12.224Z,60.07
2022-12-11T01:19:39.604Z,62.43
2022-12-11T01:22:06.941Z,61.83
2022-12-11T01:24:34.233Z,68.73
2022-12-11T01:27:01.459Z,61.63
2022-12-11T01:29:28.744Z,61.67
2022-12-11T01:31:56.045Z,62.50
2022-12-11T01:34:23.340Z,62.47
2022-12-11T01:36:52.846Z,61.43
2022-12-11T01:39:20.187Z,61.70
2022-12-11T01:41:47.478Z,59.97
2022-12-11T01:44:15.013Z,65.07
2022-12-11T01:46:43.471Z,56.93
2022-12-11T01:49:14.269Z,58.03
2022-12-11T01:51:51.007Z,61.33
2022-12-11T01:54:20.862Z,61.90
2022-12-11T01:56:50.425Z,64.90
2022-12-11T01:59:23.006Z,63.07
2022-12-11T02:02:14.692Z,55.70
2022-12-11T02:04:44.438Z,58.10
2022-12-11T02:07:12.006Z,60.87
2022-12-11T02:09:41.968Z,58.23
2022-12-11T02:12:22.920Z,58.73
2022-12-11T02:14:59.173Z,58.30
2022-12-11T02:17:36.163Z,60.17
2022-12-11T02:20:24.220Z,61.70
2022-12-11T02:23:09.607Z,57.23
2022-12-11T02:25:54.646Z,59.43
2022-12-11T02:28:25.561Z,58.33
2022-12-11T02:31:17.108Z,57.23
2022-12-11T02:34:17.167Z,62.10
2022-12-11T02:36:49.910Z,62.97
2022-12-11T02:39:19.529Z,59.70
2022-12-11T02:41:51.495Z,62.50
2022-12-11T02:44:24.587Z,64.83
2022-12-11T02:46:53.775Z,60.60
2022-12-11T02:49:23.611Z,62.30
2022-12-11T02:51:52.996Z,58.30
2022-12-11T02:54:33.479Z,60.27
2022-12-11T02:57:18.130Z,57.87
2022-12-11T02:59:46.910Z,58.20
2022-12-11T03:02:16.001Z,57.80
2022-12-11T03:04:44.787Z,61.83
2022-12-11T03:07:18.293Z,58.67
2022-12-11T03:09:49.018Z,59.77
2022-12-11T03:12:22.702Z,60.70
2022-12-11T03:14:50.615Z,65.67
2022-12-11T03:17:23.915Z,61.63
2022-12-11T03:20:07.928Z,57.07
2022-12-11T03:22:39.852Z,64.07
2022-12-11T03:25:15.882Z,59.30
2022-12-11T03:28:06.494Z,63.13
2022-12-11T03:30:37.518Z,64.70
2022-12-11T03:33:12.304Z,65.67
2022-12-11T03:35:44.081Z,68.57
2022-12-11T03:38:16.513Z,69.40
2022-12-11T03:40:47.371Z,67.50
2022-12-11T03:43:16.968Z,68.20
2022-12-11T03:45:47.386Z,75.00
2022-12-11T03:48:17.697Z,67.60
2022-12-11T03:50:47.545Z,68.27
2022-12-11T03:53:16.470Z,71.60
2022-12-11T03:55:44.482Z,68.33
2022-12-11T03:58:11.953Z,73.27
2022-12-11T04:00:39.534Z,71.27
2022-12-11T04:03:14.603Z,78.83
2022-12-11T04:05:51.704Z,77.37
2022-12-11T04:08:21.304Z,76.07
2022-12-11T04:11:09.902Z,86.57
2022-12-11T04:13:37.736Z,74.50
2022-12-11T04:16:05.632Z,79.00
2022-12-11T04:18:51.317Z,82.80
2022-12-11T04:21:39.635Z,82.70
2022-12-11T04:24:17.031Z,86.90
2022-12-11T04:26:48.483Z,77.27
2022-12-11T04:29:15.863Z,83.13
2022-12-11T04:31:43.351Z,79.53
2022-12-11T04:34:10.899Z,77.07
2022-12-11T04:36:38.435Z,84.47
2022-12-11T04:39:06.374Z,84.47
2022-12-11T04:41:33.766Z,80.53
2022-12-11T04:44:01.078Z,79.63
2022-12-11T04:46:28.382Z,80.73
2022-12-11T04:48:57.876Z,79.80
2022-12-11T04:51:26.152Z,81.03
2022-12-11T04:53:54.493Z,79.23
2022-12-11T04:56:22.606Z,84.53
2022-12-11T04:58:49.878Z,85.27
2022-12-11T05:01:19.788Z,91.00
2022-12-11T05:03:48.026Z,93.40
2022-12-11T05:06:16.011Z,92.57
2022-12-11T05:08:44.098Z,83.53
2022-12-11T05:11:14.245Z,83.57
2022-12-11T05:13:42.320Z,80.17
2022-12-11T05:16:12.531Z,81.93
2022-12-11T05:18:40.122Z,85.23
2022-12-11T05:21:10.556Z,86.83
2022-12-11T05:23:38.632Z,84.73
2022-12-11T05:26:08.366Z,82.00
2022-12-11T05:28:38.331Z,84.57
2022-12-11T05:31:18.667Z,84.23
2022-12-11T05:33:47.260Z,80.47
2022-12-11T05:36:17.924Z,81.30
2022-12-11T05:38:45.973Z,84.00
2022-12-11T05:41:16.628Z,84.87
2022-12-11T05:43:44.169Z,80.27
2022-12-11T05:46:20.761Z,92.33
2022-12-11T05:48:56.726Z,86.90
2022-12-11T05:51:24.160Z,82.17
2022-12-11T05:53:52.705Z,81.23
2022-12-11T05:56:26.852Z,81.03
2022-12-11T05:58:54.794Z,86.40
2022-12-11T06:01:43.396Z,79.53
2022-12-11T06:04:13.619Z,71.47
2022-12-11T06:06:41.555Z,73.63
2022-12-11T06:09:08.992Z,67.67
2022-12-11T06:11:36.652Z,68.70
2022-12-11T06:14:04.573Z,64.97
2022-12-11T06:16:32.977Z,63.17
2022-12-11T06:19:00.604Z,68.30
2022-12-11T06:21:30.518Z,68.60
2022-12-11T06:24:02.519Z,62.43
2022-12-11T06:26:32.352Z,66.00
2022-12-11T06:28:59.726Z,69.50
2022-12-11T06:31:27.748Z,66.83
2022-12-11T06:33:55.538Z,69.57
2022-12-11T06:36:24.771Z,72.53
2022-12-11T06:38:52.969Z,71.57
2022-12-11T06:41:20.231Z,72.40
2022-12-11T06:43:47.581Z,71.63
2022-12-11T06:46:17.487Z,66.83
2022-12-11T06:48:45.605Z,66.80
2022-12-11T06:51:18.631Z,71.83
2022-12-11T06:53:51.614Z,65.53
2022-12-11T06:56:18.938Z,66.83
2022-12-11T06:58:46.803Z,67.73
2022-12-11T07:01:18.948Z,74.43
2022-12-11T07:03:47.046Z,71.90
2022-12-11T07:06:14.779Z,67.93
2022-12-11T07:08:42.679Z,58.43
2022-12-11T07:11:12.815Z,57.53
2022-12-11T07:13:42.367Z,57.90
2022-12-11T07:16:11.793Z,61.30
2022-12-11T07:18:40.408Z,56.20
2022-12-11T07:21:09.804Z,61.33
2022-12-11T07:23:37.589Z,56.37
2022-12-11T07:26:13.990Z,60.97
2022-12-11T07:28:42.170Z,57.43
2022-12-11T07:31:15.801Z,59.80
2022-12-11T07:33:43.681Z,59.00
2022-12-11T07:36:13.466Z,61.03
2022-12-11T07:38:41.557Z,63.83
2022-12-11T07:41:12.711Z,62.77
2022-12-11T07:43:40.566Z,52.67
2022-12-11T07:46:11.856Z,56.97
2022-12-11T07:48:42.670Z,60.20
2022-12-11T07:51:20.296Z,65.47
2022-12-11T07:53:50.051Z,54.73
2022-12-11T07:56:18.848Z,59.93
2022-12-11T07:58:46.943Z,55.77
2022-12-11T08:01:20.898Z,57.20
2022-12-11T08:03:48.992Z,61.43
2022-12-11T08:06:16.634Z,62.13
2022-12-11T08:08:44.116Z,59.63
2022-12-11T08:11:14.849Z,58.43
2022-12-11T08:13:43.351Z,55.93
2022-12-11T08:16:13.425Z,59.50
2022-12-11T08:18:43.160Z,59.43
2022-12-11T08:21:16.552Z,52.13
2022-12-11T08:23:44.568Z,51.60
2022-12-11T08:26:14.960Z,61.50
2022-12-11T08:28:42.558Z,57.40
2022-12-11T08:31:11.860Z,53.10
2022-12-11T08:33:40.597Z,57.23
2022-12-11T08:36:11.221Z,54.20
2022-12-11T08:38:39.409Z,59.47
2022-12-11T08:41:13.821Z,56.07
2022-12-11T08:43:44.272Z,54.00
2022-12-11T08:46:13.160Z,53.87
2022-12-11T08:48:42.545Z,58.33
2022-12-11T08:51:13.858Z,55.47
2022-12-11T08:53:41.431Z,54.43
2022-12-11T08:56:15.128Z,53.73
2022-12-11T08:58:43.596Z,56.27
2022-12-11T09:01:17.062Z,53.53
2022-12-11T09:03:44.506Z,52.97
2022-12-11T09:06:15.005Z,54.47
2022-12-11T09:08:46.046Z,52.73
2022-12-11T09:11:24.999Z,52.47
2022-12-11T09:13:53.146Z,49.50
2022-12-11T09:16:22.916Z,52.90
2022-12-11T09:18:52.065Z,54.93
2022-12-11T09:21:21.964Z,54.63
2022-12-11T09:23:50.077Z,56.37
2022-12-11T09:26:19.028Z,50.93
2022-12-11T09:28:51.592Z,52.83
2022-12-11T09:31:24.082Z,51.43
2022-12-11T09:33:54.213Z,51.57
2022-12-11T09:36:23.996Z,51.40
2022-12-11T09:38:51.670Z,50.80
2022-12-11T09:41:22.038Z,50.57
2022-12-11T09:44:08.387Z,50.73
2022-12-11T09:46:37.051Z,50.97
2022-12-11T09:49:23.464Z,55.27
2022-12-11T09:52:00.871Z,50.53
2022-12-11T09:54:28.512Z,53.33
2022-12-11T09:57:13.084Z,47.97
2022-12-11T10:00:04.763Z,51.53
2022-12-11T10:02:50.246Z,50.37
2022-12-11T10:05:42.145Z,52.37
2022-12-11T10:08:57.410Z,51.70
2022-12-11T10:11:56.720Z,52.33
2022-12-11T10:14:42.395Z,53.73
2022-12-11T10:17:35.380Z,55.93
2022-12-11T10:20:17.490Z,48.47
2022-12-11T10:22:45.805Z,49.13
2022-12-11T10:25:36.171Z,47.47
2022-12-11T10:28:14.606Z,46.57
2022-12-11T10:31:00.356Z,48.83
2022-12-11T10:33:57.977Z,49.73
2022-12-11T10:36:40.336Z,45.73
2022-12-11T10:39:16.836Z,45.93
2022-12-11T10:41:49.628Z,50.30
2022-12-11T10:44:27.708Z,52.27
2022-12-11T10:47:12.073Z,49.23
2022-12-11T10:49:44.226Z,50.50
2022-12-11T10:52:23.795Z,50.80
2022-12-11T10:55:17.881Z,51.73
2022-12-11T10:57:46.316Z,55.47
2022-12-11T11:00:42.178Z,48.20
2022-12-11T11:03:26.359Z,49.23
2022-12-11T11:06:17.419Z,47.67
2022-12-11T11:08:51.696Z,46.83
2022-12-11T11:11:27.389Z,44.80
2022-12-11T11:14:17.277Z,46.50
2022-12-11T11:16:47.278Z,42.57
2022-12-11T11:19:35.164Z,43.97
2022-12-11T11:22:16.083Z,45.63
2022-12-11T11:25:00.141Z,43.70
2022-12-11T11:27:36.909Z,43.70
2022-12-11T11:30:17.602Z,44.50
2022-12-11T11:32:45.352Z,48.20
2022-12-11T11:35:12.767Z,43.67
2022-12-11T11:37:42.508Z,48.33
2022-12-11T11:40:20.472Z,47.07
2022-12-11T11:42:52.427Z,49.87
2022-12-11T11:45:46.690Z,44.50
2022-12-11T11:48:20.276Z,48.23
2022-12-11T11:50:50.850Z,50.90
2022-12-11T11:53:42.050Z,46.90
2022-12-11T11:56:38.369Z,45.93
2022-12-11T11:59:27.067Z,42.50
2022-12-11T12:01:57.788Z,40.27
2022-12-11T12:04:34.875Z,44.43
2022-12-11T12:07:17.402Z,44.00
2022-12-11T12:10:35.641Z,40.03
2022-12-11T12:13:30.425Z,39.07
2022-12-11T12:16:01.692Z,38.50
2022-12-11T12:18:47.951Z,33.87
2022-12-11T12:21:24.811Z,29.73
2022-12-11T12:23:52.063Z,33.27
2022-12-11T12:26:35.880Z,30.10
2022-12-11T12:29:18.025Z,30.13
2022-12-11T12:31:54.117Z,26.57
2022-12-11T12:34:21.355Z,27.03
2022-12-11T12:37:01.293Z,29.00
2022-12-11T12:39:59.071Z,24.90
2022-12-11T12:42:33.096Z,24.37
2022-12-11T12:45:07.647Z,27.50
2022-12-11T12:47:37.096Z,25.87
2022-12-11T12:50:10.752Z,27.37
2022-12-11T12:52:41.453Z,23.10
2022-12-11T12:55:14.894Z,26.07
2022-12-11T12:57:58.200Z,25.20
2022-12-11T13:00:34.563Z,27.57
2022-12-11T13:03:13.271Z,23.03
2022-12-11T13:05:55.158Z,27.27
2022-12-11T13:08:48.278Z,27.37
2022-12-11T13:11:18.944Z,30.73
2022-12-11T13:14:02.197Z,24.10
2022-12-11T13:16:37.450Z,24.83
2022-12-11T13:19:23.000Z,26.37
2022-12-11T13:22:16.455Z,25.40
2022-12-11T13:25:27.431Z,23.03
2022-12-11T13:28:08.384Z,25.20
2022-12-11T13:30:35.851Z,23.97
2022-12-11T13:33:15.192Z,27.07
2022-12-11T13:35:42.743Z,25.70
2022-12-11T13:38:19.419Z,30.80
2022-12-11T13:40:53.812Z,28.50
2022-12-11T13:43:30.299Z,28.40
2022-12-11T13:46:11.093Z,24.73
2022-12-11T13:48:47.138Z,28.20
2022-12-11T13:51:19.474Z,28.47
2022-12-11T13:53:47.253Z,29.10
2022-12-11T13:56:18.930Z,28.07
2022-12-11T13:58:47.898Z,29.97
2022-12-11T14:01:29.049Z,30.20
2022-12-11T14:04:12.099Z,27.63
2022-12-11T14:06:40.679Z,24.83
2022-12-11T14:09:09.947Z,28.63
2022-12-11T14:11:41.219Z,25.73
2022-12-11T14:14:22.407Z,25.10
2022-12-11T14:16:52.267Z,29.27
2022-12-11T14:19:22.163Z,23.90
2022-12-11T14:22:08.472Z,24.60
2022-12-11T14:24:48.874Z,26.70
2022-12-11T14:27:19.171Z,25.07
2022-12-11T14:29:47.336Z,25.80
2022-12-11T14:32:34.249Z,25.27
2022-12-11T14:35:05.682Z,22.80
2022-12-11T14:37:35.476Z,24.33
2022-12-11T14:40:17.651Z,24.33
2022-12-11T14:42:55.683Z,25.93
2022-12-11T14:45:36.951Z,25.40
2022-12-11T14:48:12.538Z,25.50
2022-12-11T14:50:44.579Z,25.33
2022-12-11T14:53:25.852Z,26.87
2022-12-11T14:55:56.837Z,26.70
2022-12-11T14:58:29.542Z,25.17
2022-12-11T15:01:02.774Z,23.00
2022-12-11T15:03:39.981Z,27.20
2022-12-11T15:06:26.312Z,22.90
2022-12-11T15:08:57.255Z,28.43
2022-12-11T15:11:30.619Z,28.40
2022-12-11T15:14:05.776Z,27.13
2022-12-11T15:16:38.200Z,26.63
2022-12-11T15:19:06.872Z,26.60
2022-12-11T15:21:38.005Z,26.20
2022-12-11T15:24:28.516Z,31.07
2022-12-11T15:27:00.083Z,30.30
2022-12-11T15:29:35.303Z,27.10
2022-12-11T15:32:14.410Z,29.70
2022-12-11T15:34:51.096Z,27.00
2022-12-11T15:37:33.111Z,26.17
2022-12-11T15:40:02.645Z,29.40
2022-12-11T15:42:32.961Z,24.93
2022-12-11T15:45:01.090Z,30.37
2022-12-11T15:47:30.319Z,28.07
2022-12-11T15:50:03.971Z,24.63
2022-12-11T15:52:31.663Z,26.20
2022-12-11T15:54:59.110Z,23.13
2022-12-11T15:57:26.507Z,25.67
2022-12-11T15:59:54.983Z,26.07
2022-12-11T16:02:25.146Z,30.57
2022-12-11T16:04:52.444Z,30.27
2022-12-11T16:07:25.364Z,29.10
2022-12-11T16:09:53.175Z,28.30
2022-12-11T16:12:20.740Z,27.90
2022-12-11T16:14:48.435Z,29.33
2022-12-11T16:17:16.511Z,28.27
2022-12-11T16:19:44.463Z,27.13
2022-12-11T16:22:13.742Z,30.47
2022-12-11T16:24:41.305Z,26.97
2022-12-11T16:27:12.229Z,28.63
2022-12-11T16:29:42.650Z,24.83
2022-12-11T16:32:10.347Z,29.67
2022-12-11T16:34:38.089Z,27.20
2022-12-11T16:37:07.685Z,28.80
2022-12-11T16:39:37.400Z,29.00
2022-12-11T16:42:07.845Z,32.50
2022-12-11T16:44:39.670Z,29.07
2022-12-11T16:47:10.178Z,24.67
2022-12-11T16:49:37.405Z,25.70
2022-12-11T16:52:05.551Z,30.00
2022-12-11T16:54:33.196Z,26.23
2022-12-11T16:57:00.668Z,25.80
2022-12-11T16:59:31.129Z,24.87
2022-12-11T17:02:01.570Z,26.77
2022-12-11T17:04:29.612Z,25.63
2022-12-11T17:06:56.898Z,23.07
2022-12-11T17:09:24.273Z,21.60
2022-12-11T17:11:54.745Z,22.67
2022-12-11T17:14:22.137Z,24.67
2022-12-11T17:16:49.870Z,23.37
2022-12-11T17:19:17.775Z,23.60
2022-12-11T17:21:49.965Z,25.60
2022-12-11T17:24:19.063Z,24.87
2022-12-11T17:26:47.392Z,25.37
2022-12-11T17:29:14.918Z,26.47
2022-12-11T17:31:42.252Z,21.53
2022-12-11T17:34:09.555Z,22.77
2022-12-11T17:36:37.241Z,21.57
2022-12-11T17:39:05.357Z,23.03
2022-12-11T17:41:32.595Z,23.57
2022-12-11T17:44:00.069Z,24.87
2022-12-11T17:46:27.413Z,23.53
2022-12-11T17:48:54.841Z,27.03
2022-12-11T17:51:24.204Z,27.87
2022-12-11T17:53:53.134Z,26.73
2022-12-11T17:56:20.638Z,23.80
2022-12-11T17:58:48.234Z,21.43
2022-12-11T18:01:15.643Z,24.47
2022-12-11T18:03:43.239Z,21.23
2022-12-11T18:06:14.810Z,24.27
2022-12-11T18:08:43.770Z,23.27
2022-12-11T18:11:15.628Z,22.27
2022-12-11T18:13:44.287Z,22.60
2022-12-11T18:16:21.370Z,24.03
2022-12-11T18:18:50.598Z,24.97
2022-12-11T18:21:25.995Z,24.73
2022-12-11T18:23:53.945Z,21.40
2022-12-11T18:26:21.919Z,24.77
2022-12-11T18:28:50.629Z,23.37
2022-12-11T18:31:20.395Z,21.37
2022-12-11T18:33:48.397Z,22.10
2022-12-11T18:36:18.554Z,23.70
2022-12-11T18:38:48.167Z,21.47
2022-12-11T18:41:17.137Z,23.23
2022-12-11T18:43:44.843Z,21.83
2022-12-11T18:46:14.823Z,23.13
2022-12-11T18:48:43.655Z,19.67
2022-12-11T18:51:14.167Z,26.17
2022-12-11T18:53:41.723Z,20.90
2022-12-11T18:56:13.099Z,24.27
2022-12-11T18:58:40.941Z,23.10
2022-12-11T19:01:16.296Z,21.17
2022-12-11T19:03:43.554Z,22.67
2022-12-11T19:06:13.806Z,23.73
2022-12-11T19:08:41.832Z,18.57
2022-12-11T19:11:09.615Z,17.93
2022-12-11T19:13:36.874Z,19.37
2022-12-11T19:16:05.218Z,20.43
2022-12-11T19:18:32.525Z,20.83
2022-12-11T19:21:08.374Z,18.23
2022-12-11T19:23:36.857Z,22.47
2022-12-11T19:26:08.160Z,21.90
2022-12-11T19:28:35.549Z,22.50
2022-12-11T19:31:02.998Z,22.33
2022-12-11T19:33:30.381Z,22.13
2022-12-11T19:36:05.797Z,18.93
2022-12-11T19:38:33.352Z,19.30
2022-12-11T19:41:08.916Z,21.07
2022-12-11T19:43:37.240Z,20.57
2022-12-11T19:46:06.912Z,24.63
2022-12-11T19:48:38.580Z,21.57
2022-12-11T19:51:14.204Z,21.20
2022-12-11T19:53:43.078Z,24.53
2022-12-11T19:56:12.518Z,22.37
2022-12-11T19:58:43.372Z,19.33
2022-12-11T20:01:18.309Z,22.97
2022-12-11T20:03:45.706Z,23.83
2022-12-11T20:06:13.939Z,28.43
2022-12-11T20:08:46.008Z,23.60
2022-12-11T20:11:18.308Z,22.20
2022-12-11T20:13:48.344Z,22.03
2022-12-11T20:16:17.479Z,25.90
2022-12-11T20:18:44.946Z,23.83
2022-12-11T20:21:15.747Z,24.00
2022-12-11T20:23:43.641Z,26.73
2022-12-11T20:26:14.430Z,23.87
2022-12-11T20:28:42.154Z,26.57
2022-12-11T20:31:19.958Z,29.33
2022-12-11T20:33:49.503Z,24.83
2022-12-11T20:36:18.959Z,23.07
2022-12-11T20:38:46.397Z,26.60
2022-12-11T20:41:15.836Z,22.90
2022-12-11T20:43:43.568Z,23.40
2022-12-11T20:46:13.108Z,25.03
2022-12-11T20:48:42.695Z,22.00
2022-12-11T20:51:11.917Z,24.70
2022-12-11T20:53:40.290Z,24.70
2022-12-11T20:56:15.654Z,20.67
2022-12-11T20:58:43.536Z,21.47
2022-12-11T21:01:15.492Z,20.97
2022-12-11T21:03:43.605Z,24.40
2022-12-11T21:06:26.500Z,25.17
2022-12-11T21:08:55.037Z,22.70
2022-12-11T21:11:23.041Z,21.67
2022-12-11T21:13:51.287Z,22.00
2022-12-11T21:16:20.144Z,24.57
2022-12-11T21:18:48.482Z,23.10
2022-12-11T21:21:16.041Z,25.03
2022-12-11T21:23:43.875Z,28.67
2022-12-11T21:26:11.597Z,28.80
2022-12-11T21:28:39.155Z,29.20
2022-12-11T21:31:09.206Z,26.67
2022-12-11T21:33:36.997Z,28.43
2022-12-11T21:36:06.184Z,30.17
2022-12-11T21:38:33.975Z,27.93
2022-12-11T21:41:19.718Z,29.30
2022-12-11T21:45:21.202Z,26.60
2022-12-11T21:46:38.791Z,27.77
2022-12-11T21:49:08.554Z,28.80
2022-12-11T21:51:41.493Z,31.30
2022-12-11T21:54:15.764Z,30.93
2022-12-11T21:56:43.294Z,26.10
2022-12-11T21:59:10.700Z,29.27
2022-12-11T22:01:42.319Z,28.83
2022-12-11T22:04:11.148Z,30.70
2022-12-11T22:06:40.243Z,30.67
2022-12-11T22:09:07.561Z,27.30
2022-12-11T22:11:35.792Z,27.67
2022-12-11T22:14:04.296Z,27.63
2022-12-11T22:16:31.665Z,26.47
2022-12-11T22:18:59.090Z,29.87
2022-12-11T22:21:26.784Z,25.03
2022-12-11T22:23:54.225Z,24.90
2022-12-11T22:26:25.996Z,27.77
2022-12-11T22:28:54.167Z,24.03
2022-12-11T22:31:24.157Z,28.20
2022-12-11T22:33:56.033Z,29.70
2022-12-11T22:36:25.544Z,28.53
2022-12-11T22:38:53.183Z,26.03
2022-12-11T22:41:26.839Z,24.40
2022-12-11T22:43:54.597Z,24.30
2022-12-11T22:46:24.934Z,29.73
2022-12-11T22:48:52.560Z,27.67
2022-12-11T22:51:20.620Z,25.23
2022-12-11T22:53:48.170Z,26.73
2022-12-11T22:56:15.556Z,28.23
2022-12-11T22:58:43.233Z,27.67
2022-12-11T23:01:19.992Z,25.80
2022-12-11T23:03:48.081Z,26.33
2022-12-11T23:06:17.476Z,27.97
2022-12-11T23:08:45.260Z,30.87
2022-12-11T23:11:26.120Z,31.70
2022-12-11T23:13:54.191Z,27.50
2022-12-11T23:16:23.391Z,25.00
2022-12-11T23:18:51.053Z,27.37
2022-12-11T23:21:18.475Z,30.17
2022-12-11T23:23:45.915Z,24.30
2022-12-11T23:26:13.816Z,27.70
2022-12-11T23:28:42.068Z,28.20
2022-12-11T23:31:09.689Z,29.23
2022-12-11T23:33:37.736Z,24.67
2022-12-11T23:36:07.049Z,26.07
2022-12-11T23:38:34.799Z,29.03
2022-12-11T23:41:05.783Z,27.07
2022-12-11T23:43:35.218Z,26.43
2022-12-11T23:46:04.849Z,28.67
2022-12-11T23:48:32.191Z,23.87
2022-12-11T23:51:01.814Z,28.97
2022-12-11T23:53:29.830Z,25.10
2022-12-11T23:56:02.416Z,25.17
2022-12-11T23:58:30.143Z,25.93
